Time;durP1;ratioP1;P1;durP2;ratioP2;P2;SDS_P1;SDS_P2;PMS_P1;PMS_P2;Temp;Humidity;BMP_temperature;BMP_pressure;BME280_temperature;BME280_humidity;BME280_pressure;Samples;Min_cycle;Max_cycle;Signal;HPM_P1;HPM_P2
2022/10/28 00:01:21;;;;;;;9.43;5.57;;;;;;;7.26;100.00;97206.53;5066755;28;20473;-80
2022/10/28 00:03:50;;;;;;;5.40;4.90;;;;;;;6.57;100.00;97119.31;5047347;28;20415;-80
2022/10/28 00:06:23;;;;;;;23.63;5.50;;;;;;;7.14;100.00;97209.56;5038339;28;20497;-80
2022/10/28 00:08:49;;;;;;;6.17;4.40;;;;;;;6.95;100.00;97162.22;5035773;28;20454;-82
2022/10/28 00:11:22;;;;;;;11.50;4.17;;;;;;;7.18;100.00;97200.03;5059520;28;20477;-81
2022/10/28 00:13:52;;;;;;;5.73;3.60;;;;;;;6.77;100.00;97170.81;5073203;28;21214;-81
2022/10/28 00:16:22;;;;;;;4.00;3.60;;;;;;;6.91;100.00;97165.66;5059993;28;20509;-81
2022/10/28 00:18:52;;;;;;;3.93;3.63;;;;;;;6.81;100.00;97166.56;5056963;28;20458;-79
2022/10/28 00:21:22;;;;;;;5.30;4.80;;;;;;;6.71;100.00;97151.72;5071520;28;20480;-82
2022/10/28 00:23:49;;;;;;;6.23;3.70;;;;;;;6.17;100.00;97096.88;5065792;28;20440;-82
2022/10/28 00:26:19;;;;;;;6.43;4.83;;;;;;;6.61;100.00;97162.34;5051084;28;20443;-80
2022/10/28 00:28:48;;;;;;;6.10;3.47;;;;;;;6.71;100.00;97164.06;5072618;28;20445;-81
2022/10/28 00:31:18;;;;;;;7.87;4.10;;;;;;;7.07;100.00;97199.38;5072719;28;20444;-80
2022/10/28 00:33:45;;;;;;;4.97;3.60;;;;;;;6.52;100.00;97128.00;5036782;28;20452;-82
2022/10/28 00:36:13;;;;;;;7.33;5.10;;;;;;;7.03;100.00;97203.63;5065286;28;20518;-81
2022/10/28 00:38:41;;;;;;;7.07;3.80;;;;;;;6.35;100.00;97119.00;5071258;28;20465;-82
2022/10/28 00:41:10;;;;;;;7.33;4.47;;;;;;;6.91;100.00;97211.13;5071936;28;20512;-80
2022/10/28 00:43:43;;;;;;;9.70;4.87;;;;;;;7.04;100.00;97207.84;5050432;28;20429;-81
2022/10/28 00:46:16;;;;;;;7.53;5.20;;;;;;;6.56;100.00;97157.16;5050485;28;20506;-81
2022/10/28 00:48:46;;;;;;;8.73;5.53;;;;;;;6.63;100.00;97172.56;5051651;28;20429;-82
2022/10/28 00:51:15;;;;;;;7.37;5.20;;;;;;;5.97;100.00;97057.69;5048547;28;20453;-81
2022/10/28 00:53:44;;;;;;;9.57;4.97;;;;;;;6.71;100.00;97187.72;5067317;28;20403;-82
2022/10/28 00:56:11;;;;;;;5.90;4.77;;;;;;;6.78;100.00;97194.19;5055101;28;20450;-80
2022/10/28 00:58:38;;;;;;;9.73;4.90;;;;;;;6.73;100.00;97202.16;5054175;28;20452;-82
2022/10/28 01:01:05;;;;;;;6.87;5.20;;;;;;;6.63;100.00;97222.47;5064651;28;20485;-82
2022/10/28 01:03:32;;;;;;;5.70;4.27;;;;;;;6.19;100.00;97163.81;5065636;28;20442;-82
2022/10/28 01:06:00;;;;;;;4.57;4.10;;;;;;;6.43;100.00;97179.59;5071547;28;20464;-79
2022/10/28 01:08:27;;;;;;;6.53;5.13;;;;;;;6.58;100.00;97204.94;5054994;28;20433;-80
2022/10/28 01:11:19;;;;;;;7.00;4.07;;;;;;;6.65;100.00;97215.88;5043220;28;20470;-79
2022/10/28 01:14:20;;;;;;;10.73;4.97;;;;;;;6.60;100.00;97209.91;5060945;28;20433;-82
2022/10/28 01:16:50;;;;;;;8.73;5.23;;;;;;;6.67;100.00;97208.50;5064328;28;20505;-80
2022/10/28 01:19:54;;;;;;;5.73;5.10;;;;;;;6.70;100.00;97196.66;5050269;28;20440;-81
2022/10/28 01:22:31;;;;;;;10.77;5.07;;;;;;;6.69;100.00;97193.25;5036605;28;20449;-80
2022/10/28 01:25:25;;;;;;;4.90;4.50;;;;;;;6.37;100.00;97199.09;5047271;28;20431;-80
2022/10/28 01:28:24;;;;;;;8.33;5.20;;;;;;;6.05;100.00;97181.25;5045367;28;20467;-80
2022/10/28 01:31:00;;;;;;;6.60;3.60;;;;;;;6.34;100.00;97191.75;5056345;28;20474;-82
2022/10/28 01:33:33;;;;;;;7.53;4.53;;;;;;;6.30;100.00;97193.38;5064373;28;20461;-81
2022/10/28 01:36:25;;;;;;;5.40;4.90;;;;;;;5.05;100.00;96980.56;5065233;28;20434;-80
2022/10/28 01:39:18;;;;;;;9.37;4.30;;;;;;;6.45;100.00;97172.22;5041319;28;20427;-82
2022/10/28 01:41:58;;;;;;;6.00;3.90;;;;;;;6.61;100.00;97187.81;5061603;28;20539;-82
2022/10/28 01:44:29;;;;;;;11.67;6.20;;;;;;;6.58;100.00;97183.91;5062783;28;20399;-82
2022/10/28 01:46:55;;;;;;;8.60;5.63;;;;;;;6.68;100.00;97183.03;5049692;28;20446;-78
2022/10/28 01:49:29;;;;;;;6.83;3.93;;;;;;;6.58;100.00;97165.53;5072049;28;20405;-81
2022/10/28 01:52:02;;;;;;;5.07;4.40;;;;;;;6.63;100.00;97177.81;5057278;28;20463;-82
2022/10/28 01:54:32;;;;;;;6.40;4.00;;;;;;;6.65;100.00;97171.22;5059163;28;20442;-81
2022/10/28 01:57:02;;;;;;;4.77;4.27;;;;;;;6.67;100.00;97150.69;5055749;28;20431;-81
2022/10/28 01:59:30;;;;;;;7.20;4.37;;;;;;;6.95;100.00;97185.88;5069043;28;20432;-82
2022/10/28 02:01:57;;;;;;;9.63;4.30;;;;;;;6.41;100.00;97104.75;5069842;28;20480;-81
2022/10/28 02:04:24;;;;;;;6.30;4.00;;;;;;;5.89;100.00;97022.34;5063289;28;20421;-81
2022/10/28 02:06:54;;;;;;;4.80;4.40;;;;;;;7.06;100.00;97189.16;5049292;28;20437;-79
2022/10/28 02:09:28;;;;;;;6.70;4.23;;;;;;;6.92;100.00;97183.00;5070877;28;20430;-82
2022/10/28 02:11:55;;;;;;;6.50;4.97;;;;;;;6.84;100.00;97165.25;5056831;28;20450;-81
2022/10/28 02:14:33;;;;;;;6.83;4.53;;;;;;;6.84;100.00;97179.16;5064616;28;20457;-82
2022/10/28 02:17:25;;;;;;;4.40;3.90;;;;;;;6.73;100.00;97186.38;5058682;28;20655;-80
2022/10/28 02:20:01;;;;;;;5.80;4.90;;;;;;;6.45;100.00;97190.63;5041231;28;20473;-80
2022/10/28 02:22:57;;;;;;;6.53;4.73;;;;;;;6.46;100.00;97170.38;5052955;28;20492;-81
2022/10/28 02:25:32;;;;;;;8.07;5.27;;;;;;;6.02;100.00;97081.28;5063333;28;20426;-81
2022/10/28 02:28:08;;;;;;;10.13;4.63;;;;;;;6.59;100.00;97153.94;5043375;28;20489;-80
2022/10/28 02:30:56;;;;;;;6.50;4.23;;;;;;;6.66;100.00;97158.84;5044571;28;20481;-82
2022/10/28 02:33:29;;;;;;;7.60;4.33;;;;;;;6.65;100.00;97144.94;5066300;28;20454;-81
2022/10/28 02:36:04;;;;;;;6.57;4.30;;;;;;;6.70;100.00;97150.16;5032648;28;20442;-81
2022/10/28 02:38:35;;;;;;;6.43;5.00;;;;;;;6.56;100.00;97149.25;5050973;28;20420;-78
2022/10/28 02:41:33;;;;;;;6.90;4.80;;;;;;;6.14;100.00;97100.03;5046509;28;20478;-81
2022/10/28 02:44:05;;;;;;;4.93;4.47;;;;;;;6.57;100.00;97142.94;5060066;28;20451;-81
2022/10/28 02:46:35;;;;;;;5.37;4.90;;;;;;;6.42;100.00;97129.97;5070024;28;20395;-80
2022/10/28 02:49:07;;;;;;;12.40;4.80;;;;;;;6.33;100.00;97163.16;5057370;28;20434;-79
2022/10/28 02:51:39;;;;;;;8.33;4.43;;;;;;;5.92;100.00;97097.91;5051869;28;20445;-80
2022/10/28 02:54:19;;;;;;;3.93;3.60;;;;;;;6.48;100.00;97161.16;5062877;28;20425;-81
2022/10/28 02:57:02;;;;;;;6.20;5.03;;;;;;;6.47;100.00;97153.56;5067472;28;20395;-80
2022/10/28 02:59:29;;;;;;;5.77;4.73;;;;;;;6.29;100.00;97120.91;5069656;28;20422;-80
2022/10/28 03:01:55;;;;;;;6.77;5.30;;;;;;;6.42;100.00;97135.22;5068292;28;20511;-81
2022/10/28 03:04:22;;;;;;;9.00;5.60;;;;;;;6.20;100.00;97104.19;5047102;28;20429;-78
2022/10/28 03:06:49;;;;;;;13.17;6.10;;;;;;;6.46;100.00;97136.22;5064137;28;20410;-81
2022/10/28 03:09:16;;;;;;;7.17;6.03;;;;;;;6.14;100.00;97064.09;5064170;28;20450;-81
2022/10/28 03:11:42;;;;;;;8.90;7.17;;;;;;;6.23;100.00;97065.03;5020007;28;20503;-80
2022/10/28 03:14:09;;;;;;;7.07;6.13;;;;;;;6.34;100.00;97078.84;5069189;28;20458;-80
2022/10/28 03:16:40;;;;;;;8.70;6.60;;;;;;;6.21;100.00;97054.03;5054046;28;20418;-81
2022/10/28 03:19:07;;;;;;;10.67;6.40;;;;;;;6.66;100.00;97132.59;5040235;28;20590;-81
2022/10/28 03:21:33;;;;;;;14.47;6.60;;;;;;;6.38;100.00;97085.09;5037578;28;20510;-81
2022/10/28 03:24:00;;;;;;;9.97;6.90;;;;;;;6.41;100.00;97079.28;5068674;28;20436;-81
2022/10/28 03:26:27;;;;;;;6.90;5.97;;;;;;;6.39;100.00;97117.38;5053346;28;20512;-80
2022/10/28 03:28:53;;;;;;;10.00;6.90;;;;;;;5.94;100.00;97043.28;5052004;28;20428;-79
2022/10/28 03:31:20;;;;;;;17.20;7.20;;;;;;;6.03;100.00;97043.47;5067444;28;20482;-80
2022/10/28 03:33:47;;;;;;;7.80;5.57;;;;;;;6.40;100.00;97076.91;5056107;28;20432;-81
2022/10/28 03:36:13;;;;;;;8.23;6.60;;;;;;;6.59;100.00;97098.78;5073653;28;20463;-82
2022/10/28 03:38:40;;;;;;;9.60;6.63;;;;;;;6.28;100.00;97079.97;5051996;28;20504;-82
2022/10/28 03:41:06;;;;;;;11.87;7.60;;;;;;;6.15;100.00;97083.25;5052125;28;20474;-80
2022/10/28 03:43:33;;;;;;;11.10;5.97;;;;;;;6.21;100.00;97063.75;5068657;28;20444;-81
2022/10/28 03:46:00;;;;;;;10.20;6.10;;;;;;;6.32;100.00;97070.47;5067466;28;20493;-79
2022/10/28 03:48:26;;;;;;;7.10;5.37;;;;;;;6.58;100.00;97109.56;5055984;28;20428;-79
2022/10/28 03:50:54;;;;;;;9.93;6.37;;;;;;;6.68;100.00;97126.00;5056572;28;20445;-81
2022/10/28 03:53:21;;;;;;;8.10;7.30;;;;;;;6.65;100.00;97108.16;5068475;28;20433;-79
2022/10/28 03:55:54;;;;;;;11.17;6.87;;;;;;;6.95;100.00;97137.78;5066828;28;20440;-81
2022/10/28 03:58:21;;;;;;;10.93;7.30;;;;;;;6.68;100.00;97093.69;5052435;28;20459;-81
2022/10/28 04:00:52;;;;;;;11.40;6.40;;;;;;;6.12;100.00;97024.19;5073365;28;20475;-79
2022/10/28 04:03:20;;;;;;;12.93;6.83;;;;;;;6.65;100.00;97137.06;5070569;28;20457;-81
2022/10/28 04:05:47;;;;;;;9.73;6.90;;;;;;;6.70;100.00;97130.97;5049558;28;20462;-81
2022/10/28 04:08:15;;;;;;;7.03;5.53;;;;;;;6.79;100.00;97132.69;5055696;28;20514;-82
2022/10/28 04:10:43;;;;;;;7.07;5.80;;;;;;;6.75;100.00;97134.31;5071529;28;20438;-81
2022/10/28 04:13:13;;;;;;;9.83;6.33;;;;;;;6.38;100.00;97085.09;5071480;28;20424;-80
2022/10/28 04:15:40;;;;;;;10.53;5.63;;;;;;;6.39;100.00;97102.41;5055898;28;20451;-80
2022/10/28 04:18:07;;;;;;;9.70;6.67;;;;;;;6.58;100.00;97126.13;5063768;28;20448;-82
2022/10/28 04:20:34;;;;;;;10.20;5.93;;;;;;;6.26;100.00;97063.69;5048792;28;20464;-81
2022/10/28 04:23:01;;;;;;;16.30;6.70;;;;;;;6.80;100.00;97133.47;5067497;28;20429;-81
2022/10/28 04:25:28;;;;;;;6.73;5.93;;;;;;;6.68;100.00;97131.25;5072705;28;20473;-81
2022/10/28 04:27:54;;;;;;;9.07;6.30;;;;;;;6.49;100.00;97101.50;5072514;28;20429;-81
2022/10/28 04:30:22;;;;;;;9.87;5.70;;;;;;;6.49;100.00;97112.03;5066454;28;20421;-81
2022/10/28 04:32:48;;;;;;;8.80;6.33;;;;;;;5.86;100.00;97010.53;5066494;28;20450;-81
2022/10/28 04:35:15;;;;;;;7.40;6.60;;;;;;;6.52;100.00;97112.25;5065051;28;20449;-79
2022/10/28 04:37:42;;;;;;;10.73;5.60;;;;;;;6.31;100.00;97074.16;5046977;28;20514;-79
2022/10/28 04:40:09;;;;;;;10.17;6.27;;;;;;;6.66;100.00;97135.22;5066286;28;20417;-79
2022/10/28 04:42:36;;;;;;;14.17;6.10;;;;;;;6.61;100.00;97109.78;5048701;28;20425;-79
2022/10/28 04:45:02;;;;;;;10.17;7.53;;;;;;;6.38;100.00;97068.53;5049450;28;20453;-80
2022/10/28 04:47:29;;;;;;;8.67;6.70;;;;;;;6.56;100.00;97114.31;5049595;28;20453;-79
2022/10/28 04:49:56;;;;;;;7.30;6.43;;;;;;;6.55;100.00;97128.53;5050194;28;20492;-79
2022/10/28 04:52:22;;;;;;;7.50;5.60;;;;;;;6.44;100.00;97110.25;5065526;28;20466;-81
2022/10/28 04:54:49;;;;;;;9.20;6.47;;;;;;;6.25;100.00;97104.13;5055597;28;20443;-80
2022/10/28 04:57:16;;;;;;;15.00;6.60;;;;;;;5.89;100.00;97043.31;5072593;28;20421;-80
2022/10/28 04:59:43;;;;;;;9.40;6.10;;;;;;;6.29;100.00;97096.50;5066690;28;20444;-81
2022/10/28 05:02:09;;;;;;;10.40;6.30;;;;;;;6.48;100.00;97115.72;5062747;28;20478;-80
2022/10/28 05:04:36;;;;;;;11.90;6.80;;;;;;;6.27;100.00;97115.13;5060995;28;20442;-83
2022/10/28 05:07:03;;;;;;;11.13;6.20;;;;;;;6.29;100.00;97107.00;5035629;28;20520;-83
2022/10/28 05:09:29;;;;;;;11.00;6.47;;;;;;;6.17;100.00;97079.28;5032643;28;20423;-82
2022/10/28 05:11:56;;;;;;;12.00;6.63;;;;;;;5.91;100.00;97049.88;5019920;28;20466;-82
2022/10/28 05:14:22;;;;;;;7.97;6.40;;;;;;;6.47;100.00;97112.31;5015592;28;20467;-82
2022/10/28 05:16:49;;;;;;;12.13;7.37;;;;;;;5.71;100.00;96988.91;5022766;28;20431;-82
2022/10/28 05:19:16;;;;;;;7.70;6.80;;;;;;;6.09;100.00;97047.59;5051545;28;20452;-82
2022/10/28 05:21:42;;;;;;;6.93;6.23;;;;;;;6.25;100.00;97077.88;5052475;28;20481;-82
2022/10/28 05:24:09;;;;;;;7.80;7.10;;;;;;;4.73;100.00;96816.06;5055650;28;20517;-81
2022/10/28 05:26:36;;;;;;;9.27;7.50;;;;;;;6.33;100.00;97085.16;5067176;28;20461;-82
2022/10/28 05:29:02;;;;;;;8.07;6.50;;;;;;;6.64;100.00;97118.94;5042097;28;20503;-82
2022/10/28 05:31:29;;;;;;;8.93;7.50;;;;;;;6.58;100.00;97120.88;5046267;28;21016;-83
2022/10/28 05:33:56;;;;;;;13.00;11.63;;;;;;;5.64;100.00;96981.38;5049332;28;20439;-82
2022/10/28 05:36:22;;;;;;;18.83;9.33;;;;;;;5.32;100.00;96946.00;5016529;28;20497;-82
2022/10/28 05:38:49;;;;;;;9.40;8.60;;;;;;;6.24;100.00;97126.19;5027667;28;20522;-82
2022/10/28 05:41:16;;;;;;;12.20;9.00;;;;;;;5.88;100.00;97054.88;5079026;28;20537;-83
2022/10/28 05:43:42;;;;;;;14.17;7.70;;;;;;;6.39;100.00;97141.03;5046837;28;20433;-82
2022/10/28 05:46:09;;;;;;;10.20;6.30;;;;;;;5.96;100.00;97072.66;5061192;28;20453;-81
2022/10/28 05:48:36;;;;;;;7.47;6.70;;;;;;;6.16;100.00;97109.22;5064313;28;20449;-82
2022/10/28 05:51:02;;;;;;;7.00;6.40;;;;;;;5.86;100.00;97049.88;5042503;28;20457;-82
2022/10/28 05:53:29;;;;;;;11.43;8.03;;;;;;;6.13;100.00;97093.22;5016976;28;20947;-82
2022/10/28 05:55:56;;;;;;;9.90;7.67;;;;;;;6.41;100.00;97125.75;5047624;28;20457;-82
2022/10/28 05:58:22;;;;;;;12.27;8.77;;;;;;;6.16;100.00;97088.22;5045678;28;20445;-82
2022/10/28 06:00:49;;;;;;;12.20;9.20;;;;;;;5.01;100.00;96934.25;5053732;28;20484;-82
2022/10/28 06:03:16;;;;;;;14.33;9.50;;;;;;;6.44;100.00;97138.34;5016492;28;20517;-82
2022/10/28 06:05:44;;;;;;;14.57;9.57;;;;;;;6.17;100.00;97110.00;5031674;28;20458;-82
2022/10/28 06:08:12;;;;;;;16.13;9.07;;;;;;;5.30;100.00;96978.81;5046574;28;20445;-82
2022/10/28 06:11:02;;;;;;;20.07;10.20;;;;;;;6.47;100.00;97161.44;5040406;28;20982;-82
2022/10/28 06:13:29;;;;;;;10.87;9.57;;;;;;;6.37;100.00;97153.66;5053112;28;21009;-82
2022/10/28 06:15:56;;;;;;;13.00;10.17;;;;;;;6.28;100.00;97134.28;5019758;28;21299;-82
2022/10/28 06:18:23;;;;;;;14.87;9.20;;;;;;;6.51;100.00;97159.81;5050684;28;20457;-82
2022/10/28 06:20:52;;;;;;;13.90;8.47;;;;;;;6.08;100.00;97086.19;5028873;28;20533;-82
2022/10/28 06:23:19;;;;;;;20.00;11.53;;;;;;;6.77;100.00;97176.88;5017908;28;20497;-82
2022/10/28 06:25:45;;;;;;;11.73;10.00;;;;;;;6.72;100.00;97150.66;5028338;28;20433;-82
2022/10/28 06:28:12;;;;;;;16.67;10.37;;;;;;;6.72;100.00;97169.03;5040083;28;20915;-82
2022/10/28 06:30:39;;;;;;;15.20;11.07;;;;;;;5.73;100.00;97026.16;5032908;28;20447;-82
2022/10/28 06:33:05;;;;;;;13.40;9.70;;;;;;;6.77;100.00;97160.31;5046109;28;20425;-82
2022/10/28 06:35:32;;;;;;;18.47;10.50;;;;;;;6.53;100.00;97095.41;5012335;28;20447;-81
2022/10/28 06:37:59;;;;;;;13.40;11.43;;;;;;;7.10;100.00;97148.88;5019590;28;20443;-82
2022/10/28 06:40:26;;;;;;;16.80;13.43;;;;;;;7.60;100.00;97212.38;5048163;28;20506;-82
2022/10/28 06:43:01;;;;;;;11.87;10.77;;;;;;;7.29;100.00;97154.13;5027758;28;20485;-81
2022/10/28 06:45:29;;;;;;;23.83;11.27;;;;;;;7.55;100.00;97204.56;5060430;28;20472;-81
2022/10/28 06:48:00;;;;;;;18.67;11.80;;;;;;;7.37;100.00;97200.09;5058992;28;20479;-81
2022/10/28 06:50:28;;;;;;;19.13;12.03;;;;;;;7.11;100.00;97160.16;5043303;28;20462;-82
2022/10/28 06:52:56;;;;;;;16.40;10.30;;;;;;;7.44;100.00;97211.03;5009709;28;20546;-82
2022/10/28 06:55:24;;;;;;;17.77;10.97;;;;;;;7.12;100.00;97161.75;5031990;28;20446;-82
2022/10/28 06:57:51;;;;;;;12.70;10.93;;;;;;;7.45;100.00;97191.53;5026609;28;20444;-82
2022/10/28 07:00:19;;;;;;;16.77;12.37;;;;;;;7.69;100.00;97213.31;5018461;28;20430;-82
2022/10/28 07:02:51;;;;;;;16.67;12.77;;;;;;;7.15;100.00;97102.53;5015345;28;20498;-80
2022/10/28 07:05:18;;;;;;;14.10;12.60;;;;;;;8.10;100.00;97223.22;5047008;28;20437;-81
2022/10/28 07:07:44;;;;;;;14.67;11.10;;;;;;;8.16;100.00;97231.84;5047606;28;20529;-82
2022/10/28 07:10:11;;;;;;;18.60;13.17;;;;;;;8.12;100.00;97231.63;5047518;28;20856;-82
2022/10/28 07:12:38;;;;;;;15.80;12.97;;;;;;;7.42;100.00;97121.06;5021162;28;20510;-82
2022/10/28 07:15:05;;;;;;;16.97;13.37;;;;;;;7.64;100.00;97157.34;5047940;28;20444;-82
2022/10/28 07:17:32;;;;;;;15.57;11.67;;;;;;;8.00;100.00;97189.91;5033927;28;20438;-82
2022/10/28 07:19:58;;;;;;;16.03;11.00;;;;;;;8.04;100.00;97170.94;5035366;28;20532;-82
2022/10/28 07:22:25;;;;;;;14.70;10.80;;;;;;;8.11;100.00;97198.44;5054368;28;20466;-82
2022/10/28 07:24:52;;;;;;;17.00;13.27;;;;;;;7.54;100.00;97126.69;5027894;28;20439;-82
2022/10/28 07:27:18;;;;;;;12.30;9.70;;;;;;;8.38;100.00;97245.19;5020768;28;20441;-82
2022/10/28 07:29:45;;;;;;;16.93;10.27;;;;;;;8.41;100.00;97234.06;5047637;28;20885;-82
2022/10/28 07:32:12;;;;;;;18.23;12.60;;;;;;;8.45;100.00;97226.38;5020275;28;20497;-82
2022/10/28 07:34:38;;;;;;;15.63;11.93;;;;;;;8.22;100.00;97188.53;5036298;28;20452;-82
2022/10/28 07:37:05;;;;;;;14.70;10.43;;;;;;;8.44;100.00;97238.00;5019988;28;20462;-82
2022/10/28 07:39:32;;;;;;;14.50;12.13;;;;;;;8.13;100.00;97177.09;5020803;28;20439;-83
2022/10/28 07:42:00;;;;;;;14.00;11.63;;;;;;;8.39;100.00;97217.00;5020912;28;20467;-82
2022/10/28 07:44:27;;;;;;;15.80;11.83;;;;;;;8.30;100.00;97199.19;5023293;28;20864;-82
2022/10/28 07:46:54;;;;;;;12.53;11.20;;;;;;;8.50;100.00;97200.72;5036959;28;20445;-82
2022/10/28 07:49:23;;;;;;;13.80;9.47;;;;;;;7.89;100.00;97080.59;5045993;28;20427;-83
2022/10/28 07:51:50;;;;;;;11.10;8.43;;;;;;;8.74;100.00;97203.19;5021697;28;20889;-82
2022/10/28 07:54:17;;;;;;;16.60;9.17;;;;;;;8.57;100.00;97145.78;5032712;28;20448;-82
2022/10/28 07:56:44;;;;;;;11.60;10.40;;;;;;;8.99;100.00;97169.50;5031717;28;20459;-83
2022/10/28 07:59:10;;;;;;;18.83;10.60;;;;;;;8.96;100.00;97154.25;5049252;28;20873;-82
2022/10/28 08:01:37;;;;;;;15.60;10.50;;;;;;;8.95;100.00;97150.84;5049475;28;20457;-82
2022/10/28 08:04:04;;;;;;;12.77;10.07;;;;;;;9.12;100.00;97160.78;5041152;28;20446;-78
2022/10/28 08:06:33;;;;;;;15.70;10.73;;;;;;;9.25;100.00;97175.03;5037570;28;20987;-78
2022/10/28 08:09:00;;;;;;;14.30;11.63;;;;;;;9.07;100.00;97145.81;5036202;28;20430;-78
2022/10/28 08:11:26;;;;;;;13.07;10.97;;;;;;;9.44;100.00;97160.59;5037691;28;20537;-78
2022/10/28 08:13:54;;;;;;;14.37;11.77;;;;;;;9.24;100.00;97123.34;5035832;28;20505;-78
2022/10/28 08:16:21;;;;;;;11.60;9.93;;;;;;;9.46;100.00;97155.03;5037001;28;20441;-82
2022/10/28 08:18:48;;;;;;;13.03;10.50;;;;;;;9.54;100.00;97172.81;5054223;28;20522;-82
2022/10/28 08:21:15;;;;;;;23.77;10.70;;;;;;;9.60;100.00;97170.81;5028618;28;20492;-79
2022/10/28 08:23:45;;;;;;;13.57;12.03;;;;;;;9.26;100.00;97121.19;5059787;28;20517;-80
2022/10/28 08:26:13;;;;;;;16.13;12.03;;;;;;;9.66;100.00;97174.94;5057583;28;20417;-79
2022/10/28 08:28:41;;;;;;;11.30;9.80;;;;;;;9.66;100.00;97180.22;5044440;28;20463;-80
2022/10/28 08:31:08;;;;;;;18.20;11.87;;;;;;;9.42;100.00;97162.75;5026664;28;20482;-80
2022/10/28 08:33:38;;;;;;;17.30;12.53;;;;;;;9.33;100.00;97117.03;5049480;28;20437;-80
2022/10/28 08:36:06;;;;;;;12.77;10.87;;;;;;;9.13;100.00;97070.78;5055240;28;20433;-79
2022/10/28 08:38:33;;;;;;;16.40;13.10;;;;;;;9.15;100.00;97067.84;5060712;28;20488;-79
2022/10/28 08:41:11;;;;;;;14.50;11.60;;;;;;;9.97;100.00;97167.84;5048022;28;20470;-79
2022/10/28 08:43:44;;;;;;;18.40;12.37;;;;;;;10.00;100.00;97171.75;5031868;28;20482;-80
2022/10/28 08:46:38;;;;;;;14.73;12.63;;;;;;;9.66;100.00;97107.06;5056040;28;20449;-80
2022/10/28 08:49:11;;;;;;;13.23;11.90;;;;;;;10.11;100.00;97151.13;5063913;28;20453;-79
2022/10/28 08:51:57;;;;;;;13.83;11.97;;;;;;;10.10;100.00;97149.59;5051290;28;20469;-79
2022/10/28 08:54:36;;;;;;;19.10;14.57;;;;;;;10.09;100.00;97119.75;5059420;28;20430;-80
2022/10/28 08:57:08;;;;;;;17.10;13.60;;;;;;;10.29;100.00;97121.91;5047893;28;20510;-79
2022/10/28 08:59:40;;;;;;;18.70;14.50;;;;;;;10.40;100.00;97106.53;5061751;28;20473;-80
2022/10/28 09:02:10;;;;;;;21.80;14.23;;;;;;;10.82;100.00;97144.81;5048601;28;20462;-79
2022/10/28 09:04:45;;;;;;;22.13;16.20;;;;;;;11.03;100.00;97138.94;5038213;28;20464;-80
2022/10/28 09:07:18;;;;;;;22.30;15.87;;;;;;;10.62;100.00;97050.94;5052724;28;20406;-78
2022/10/28 09:09:49;;;;;;;17.73;14.30;;;;;;;11.33;100.00;97131.97;5066884;28;20405;-78
2022/10/28 09:12:31;;;;;;;15.03;13.60;;;;;;;11.79;100.00;97165.81;5057803;28;20514;-79
2022/10/28 09:15:11;;;;;;;15.47;12.67;;;;;;;11.88;100.00;97187.78;5039774;28;20435;-79
2022/10/28 09:17:41;;;;;;;18.77;14.07;;;;;;;12.11;100.00;97201.63;5040900;28;20483;-80
2022/10/28 09:20:18;;;;;;;16.93;13.00;;;;;;;12.01;100.00;97183.41;5050963;28;20529;-79
2022/10/28 09:22:57;;;;;;;14.73;13.20;;;;;;;12.10;100.00;97192.91;5044909;28;20472;-80
2022/10/28 09:25:47;;;;;;;14.30;12.80;;;;;;;11.92;100.00;97172.81;5048375;28;20536;-80
2022/10/28 09:28:25;;;;;;;18.27;14.33;;;;;;;12.12;100.00;97208.50;5034787;28;20431;-80
2022/10/28 09:31:07;;;;;;;15.40;13.47;;;;;;;12.21;100.00;97216.44;5044781;28;20497;-80
2022/10/28 09:33:34;;;;;;;13.60;12.30;;;;;;;12.31;100.00;97208.94;5034683;28;20945;-80
2022/10/28 09:36:02;;;;;;;16.53;12.83;;;;;;;11.86;100.00;97150.22;5052321;28;20430;-80
2022/10/28 09:38:34;;;;;;;13.93;12.10;;;;;;;12.36;100.00;97211.41;5030624;28;20462;-80
2022/10/28 09:41:26;;;;;;;16.00;14.30;;;;;;;12.42;100.00;97209.41;5057122;28;20442;-80
2022/10/28 09:44:06;;;;;;;13.93;12.40;;;;;;;12.12;100.00;97166.06;5017173;28;20446;-80
2022/10/28 09:46:33;;;;;;;17.33;12.03;;;;;;;12.19;100.00;97158.44;5030452;28;20823;-80
2022/10/28 09:49:10;;;;;;;19.03;14.40;;;;;;;12.54;100.00;97214.03;5031327;28;20434;-80
2022/10/28 09:51:37;;;;;;;18.53;13.10;;;;;;;12.67;100.00;97215.69;5039115;28;20976;-80
2022/10/28 09:54:03;;;;;;;13.80;12.47;;;;;;;12.28;100.00;97161.81;5036344;28;20785;-80
2022/10/28 09:56:30;;;;;;;18.03;13.10;;;;;;;12.45;100.00;97166.31;5010696;28;20520;-80
2022/10/28 09:59:00;;;;;;;13.50;12.17;;;;;;;12.12;100.00;97121.00;5050966;28;20476;-80
2022/10/28 10:01:31;;;;;;;15.10;12.10;;;;;;;12.55;100.00;97181.09;5043946;28;20492;-80
2022/10/28 10:03:58;;;;;;;25.37;13.37;;;;;;;12.34;100.00;97155.25;5026690;28;20481;-80
2022/10/28 10:06:35;;;;;;;17.93;13.97;;;;;;;12.60;100.00;97191.53;5034916;28;20457;-80
2022/10/28 10:09:03;;;;;;;15.90;13.60;;;;;;;12.73;100.00;97196.66;5055156;28;20426;-80
2022/10/28 10:11:42;;;;;;;16.87;11.23;;;;;;;12.46;100.00;97178.47;5032800;28;20471;-80
2022/10/28 10:14:14;;;;;;;16.33;13.53;;;;;;;12.62;100.00;97192.78;5032979;28;20442;-79
2022/10/28 10:16:46;;;;;;;15.73;11.20;;;;;;;12.69;100.00;97197.59;5031221;28;20830;-80
2022/10/28 10:19:12;;;;;;;16.00;11.57;;;;;;;12.53;100.00;97164.72;5039619;28;20439;-80
2022/10/28 10:21:42;;;;;;;17.70;11.50;;;;;;;12.89;100.00;97207.50;5057560;28;20477;-80
2022/10/28 10:24:21;;;;;;;12.73;11.43;;;;;;;13.01;100.00;97202.31;5024487;28;20470;-80
2022/10/28 10:26:50;;;;;;;14.83;11.57;;;;;;;12.93;100.00;97150.03;5038538;28;20451;-80
2022/10/28 10:29:17;;;;;;;14.50;10.73;;;;;;;13.31;100.00;97186.38;5037735;28;20944;-80
2022/10/28 10:31:46;;;;;;;12.80;10.07;;;;;;;13.13;100.00;97180.38;5040985;28;21040;-80
2022/10/28 10:34:25;;;;;;;9.73;8.83;;;;;;;13.39;100.00;97188.22;5055512;28;20429;-80
2022/10/28 10:36:55;;;;;;;10.63;8.63;;;;;;;13.25;100.00;97126.59;5022429;28;20470;-80
2022/10/28 10:39:28;;;;;;;13.20;10.43;;;;;;;13.36;100.00;97143.72;5051494;28;20440;-80
2022/10/28 10:41:55;;;;;;;12.93;9.63;;;;;;;13.23;100.00;97121.63;5036544;28;20470;-81
2022/10/28 10:44:21;;;;;;;10.83;9.73;;;;;;;13.86;100.00;97199.44;5053095;28;20473;-81
2022/10/28 10:47:01;;;;;;;10.10;8.50;;;;;;;13.94;100.00;97205.78;5053414;28;20437;-81
2022/10/28 10:49:33;;;;;;;13.57;10.57;;;;;;;14.06;100.00;97197.84;5052160;28;20417;-81
2022/10/28 10:52:20;;;;;;;13.00;9.60;;;;;;;13.90;100.00;97192.38;5035136;28;20458;-81
2022/10/28 10:55:00;;;;;;;10.97;7.90;;;;;;;13.87;100.00;97190.34;5023241;28;20471;-81
2022/10/28 10:57:27;;;;;;;10.23;8.50;;;;;;;13.98;100.00;97204.03;5051787;28;20441;-81
2022/10/28 10:59:55;;;;;;;9.50;6.93;;;;;;;13.81;100.00;97146.47;5040749;28;20516;-81
2022/10/28 11:02:24;;;;;;;8.37;6.03;;;;;;;13.98;100.00;97142.88;5032496;28;20503;-81
2022/10/28 11:04:56;;;;;;;7.97;6.50;;;;;;;14.18;100.00;97170.53;5055536;28;20475;-81
2022/10/28 11:07:24;;;;;;;9.43;7.80;;;;;;;14.58;100.00;97189.38;5052965;28;20441;-81
2022/10/28 11:09:51;;;;;;;8.57;6.50;;;;;;;14.58;100.00;97176.09;5055676;28;20466;-81
2022/10/28 11:12:25;;;;;;;9.83;5.70;;;;;;;14.79;100.00;97202.59;5046367;28;20477;-81
2022/10/28 11:14:58;;;;;;;9.70;5.87;;;;;;;14.86;100.00;97202.84;5017547;28;20465;-81
2022/10/28 11:17:33;;;;;;;9.57;6.00;;;;;;;14.89;100.00;97170.22;5058546;28;20492;-81
2022/10/28 11:20:23;;;;;;;8.30;6.10;;;;;;;15.16;100.00;97198.06;5044505;28;20444;-81
2022/10/28 11:23:06;;;;;;;7.90;5.30;;;;;;;15.32;100.00;97192.81;5063739;28;20468;-81
2022/10/28 11:25:36;;;;;;;7.07;5.00;;;;;;;14.37;100.00;97029.78;5046049;28;20469;-81
2022/10/28 11:28:18;;;;;;;11.13;6.03;;;;;;;15.28;100.00;97187.41;5046409;28;20398;-81
2022/10/28 11:31:22;;;;;;;6.30;5.27;;;;;;;15.45;100.00;97185.59;5062882;28;20646;-81
2022/10/28 11:34:14;;;;;;;7.17;4.63;;;;;;;15.29;100.00;97156.97;5048120;28;20448;-81
2022/10/28 11:37:08;;;;;;;6.27;5.10;;;;;;;15.53;100.00;97174.81;5054502;28;20445;-81
2022/10/28 11:39:54;;;;;;;5.27;4.80;;;;;;;15.70;100.00;97170.34;5048099;28;20464;-81
2022/10/28 11:42:46;;;;;;;8.10;4.17;;;;;;;15.50;100.00;97146.16;5034002;28;20497;-81